sensor_id;sensor_type;location;lat;lon;timestamp;P1;durP1;ratioP1;P2;durP2;ratioP2
3949;SDS011;53057;50.988;6.314;2023-04-24T00:02:21;2.20;;;2.00;;
3949;SDS011;53057;50.988;6.314;2023-04-24T00:04:48;5.97;;;2.30;;
3949;SDS011;53057;50.988;6.314;2023-04-24T00:07:15;2.80;;;2.00;;
3949;SDS011;53057;50.988;6.314;2023-04-24T00:09:46;6.13;;;2.37;;
3949;SDS011;53057;50.988;6.314;2023-04-24T00:12:13;1.87;;;1.50;;
3949;SDS011;53057;50.988;6.314;2023-04-24T00:14:39;3.30;;;2.50;;
3949;SDS011;53057;50.988;6.314;2023-04-24T00:17:06;2.27;;;2.13;;
3949;SDS011;53057;50.988;6.314;2023-04-24T00:19:33;3.00;;;2.30;;
3949;SDS011;53057;50.988;6.314;2023-04-24T00:22:00;3.07;;;2.80;;
3949;SDS011;53057;50.988;6.314;2023-04-24T00:24:26;3.00;;;2.37;;
3949;SDS011;53057;50.988;6.314;2023-04-24T00:26:53;3.70;;;2.40;;
3949;SDS011;53057;50.988;6.314;2023-04-24T00:29:19;4.80;;;3.13;;
3949;SDS011;53057;50.988;6.314;2023-04-24T00:31:46;4.30;;;3.90;;
3949;SDS011;53057;50.988;6.314;2023-04-24T00:34:13;4.10;;;3.70;;
3949;SDS011;53057;50.988;6.314;2023-04-24T00:36:39;10.93;;;4.00;;
3949;SDS011;53057;50.988;6.314;2023-04-24T00:39:06;5.47;;;4.30;;
3949;SDS011;53057;50.988;6.314;2023-04-24T00:41:35;12.33;;;6.70;;
3949;SDS011;53057;50.988;6.314;2023-04-24T00:44:01;7.53;;;5.40;;
3949;SDS011;53057;50.988;6.314;2023-04-24T00:46:28;8.17;;;5.30;;
3949;SDS011;53057;50.988;6.314;2023-04-24T00:48:55;9.43;;;6.17;;
3949;SDS011;53057;50.988;6.314;2023-04-24T00:51:22;10.20;;;5.37;;
3949;SDS011;53057;50.988;6.314;2023-04-24T00:53:50;12.37;;;5.70;;
3949;SDS011;53057;50.988;6.314;2023-04-24T00:56:18;6.77;;;5.37;;
3949;SDS011;53057;50.988;6.314;2023-04-24T00:58:45;8.57;;;6.00;;
3949;SDS011;53057;50.988;6.314;2023-04-24T01:01:12;10.60;;;6.33;;
3949;SDS011;53057;50.988;6.314;2023-04-24T01:03:39;7.93;;;6.10;;
3949;SDS011;53057;50.988;6.314;2023-04-24T01:06:07;11.87;;;6.37;;
3949;SDS011;53057;50.988;6.314;2023-04-24T01:08:34;9.10;;;7.10;;
3949;SDS011;53057;50.988;6.314;2023-04-24T01:11:03;9.23;;;7.07;;
3949;SDS011;53057;50.988;6.314;2023-04-24T01:13:30;15.87;;;7.80;;
3949;SDS011;53057;50.988;6.314;2023-04-24T01:15:57;9.73;;;7.30;;
3949;SDS011;53057;50.988;6.314;2023-04-24T01:18:26;13.67;;;8.73;;
3949;SDS011;53057;50.988;6.314;2023-04-24T01:20:57;11.53;;;9.30;;
3949;SDS011;53057;50.988;6.314;2023-04-24T01:23:23;10.40;;;7.77;;
3949;SDS011;53057;50.988;6.314;2023-04-24T01:25:50;15.87;;;9.77;;
3949;SDS011;53057;50.988;6.314;2023-04-24T01:28:17;15.60;;;7.67;;
3949;SDS011;53057;50.988;6.314;2023-04-24T01:30:44;15.73;;;10.07;;
3949;SDS011;53057;50.988;6.314;2023-04-24T01:33:11;13.27;;;8.90;;
3949;SDS011;53057;50.988;6.314;2023-04-24T01:35:37;17.70;;;8.67;;
3949;SDS011;53057;50.988;6.314;2023-04-24T01:38:04;16.40;;;9.50;;
3949;SDS011;53057;50.988;6.314;2023-04-24T01:40:32;16.20;;;9.17;;
3949;SDS011;53057;50.988;6.314;2023-04-24T01:42:58;18.53;;;10.67;;
3949;SDS011;53057;50.988;6.314;2023-04-24T01:45:25;15.27;;;10.60;;
3949;SDS011;53057;50.988;6.314;2023-04-24T01:47:52;17.53;;;11.60;;
3949;SDS011;53057;50.988;6.314;2023-04-24T01:50:18;17.37;;;10.40;;
3949;SDS011;53057;50.988;6.314;2023-04-24T01:52:45;16.37;;;10.43;;
3949;SDS011;53057;50.988;6.314;2023-04-24T01:55:11;16.03;;;11.73;;
3949;SDS011;53057;50.988;6.314;2023-04-24T01:57:38;17.03;;;10.90;;
3949;SDS011;53057;50.988;6.314;2023-04-24T02:00:06;12.37;;;7.57;;
3949;SDS011;53057;50.988;6.314;2023-04-24T02:02:39;16.90;;;9.60;;
3949;SDS011;53057;50.988;6.314;2023-04-24T02:05:07;18.07;;;11.80;;
3949;SDS011;53057;50.988;6.314;2023-04-24T02:07:36;13.87;;;9.87;;
3949;SDS011;53057;50.988;6.314;2023-04-24T02:10:03;29.23;;;12.07;;
3949;SDS011;53057;50.988;6.314;2023-04-24T02:12:31;18.97;;;10.60;;
3949;SDS011;53057;50.988;6.314;2023-04-24T02:14:59;16.50;;;10.47;;
3949;SDS011;53057;50.988;6.314;2023-04-24T02:17:25;24.03;;;12.63;;
3949;SDS011;53057;50.988;6.314;2023-04-24T02:19:52;22.27;;;11.03;;
3949;SDS011;53057;50.988;6.314;2023-04-24T02:22:19;19.03;;;11.00;;
3949;SDS011;53057;50.988;6.314;2023-04-24T02:24:46;30.23;;;10.70;;
3949;SDS011;53057;50.988;6.314;2023-04-24T02:27:14;12.67;;;9.53;;
3949;SDS011;53057;50.988;6.314;2023-04-24T02:29:41;12.40;;;9.30;;
3949;SDS011;53057;50.988;6.314;2023-04-24T02:32:08;18.80;;;10.17;;
3949;SDS011;53057;50.988;6.314;2023-04-24T02:34:38;12.10;;;8.27;;
3949;SDS011;53057;50.988;6.314;2023-04-24T02:37:05;12.87;;;8.67;;
3949;SDS011;53057;50.988;6.314;2023-04-24T02:39:31;16.00;;;9.90;;
3949;SDS011;53057;50.988;6.314;2023-04-24T02:41:58;17.80;;;10.37;;
3949;SDS011;53057;50.988;6.314;2023-04-24T02:44:24;17.70;;;11.60;;
3949;SDS011;53057;50.988;6.314;2023-04-24T02:46:51;14.90;;;9.43;;
3949;SDS011;53057;50.988;6.314;2023-04-24T02:49:18;18.43;;;10.73;;
3949;SDS011;53057;50.988;6.314;2023-04-24T02:51:44;21.83;;;11.30;;
3949;SDS011;53057;50.988;6.314;2023-04-24T02:54:11;13.37;;;10.00;;
3949;SDS011;53057;50.988;6.314;2023-04-24T02:56:37;11.83;;;8.40;;
3949;SDS011;53057;50.988;6.314;2023-04-24T02:59:06;15.30;;;9.93;;
3949;SDS011;53057;50.988;6.314;2023-04-24T03:01:32;17.93;;;11.27;;
3949;SDS011;53057;50.988;6.314;2023-04-24T03:04:00;15.10;;;10.13;;
3949;SDS011;53057;50.988;6.314;2023-04-24T03:06:27;19.50;;;11.03;;
3949;SDS011;53057;50.988;6.314;2023-04-24T03:08:54;15.63;;;11.40;;
3949;SDS011;53057;50.988;6.314;2023-04-24T03:11:21;13.83;;;10.50;;
3949;SDS011;53057;50.988;6.314;2023-04-24T03:13:47;12.20;;;10.40;;
3949;SDS011;53057;50.988;6.314;2023-04-24T03:16:14;21.83;;;11.50;;
3949;SDS011;53057;50.988;6.314;2023-04-24T03:18:41;19.57;;;10.30;;
3949;SDS011;53057;50.988;6.314;2023-04-24T03:21:08;20.33;;;11.43;;
3949;SDS011;53057;50.988;6.314;2023-04-24T03:23:35;14.00;;;9.80;;
3949;SDS011;53057;50.988;6.314;2023-04-24T03:26:01;24.83;;;11.20;;
3949;SDS011;53057;50.988;6.314;2023-04-24T03:28:29;13.67;;;9.33;;
3949;SDS011;53057;50.988;6.314;2023-04-24T03:30:59;15.80;;;11.80;;
3949;SDS011;53057;50.988;6.314;2023-04-24T03:33:30;19.90;;;10.47;;
3949;SDS011;53057;50.988;6.314;2023-04-24T03:36:00;20.00;;;11.20;;
3949;SDS011;53057;50.988;6.314;2023-04-24T03:38:34;16.27;;;9.83;;
3949;SDS011;53057;50.988;6.314;2023-04-24T03:41:19;20.00;;;12.80;;
3949;SDS011;53057;50.988;6.314;2023-04-24T03:44:05;16.23;;;10.07;;
3949;SDS011;53057;50.988;6.314;2023-04-24T03:46:32;17.60;;;11.47;;
3949;SDS011;53057;50.988;6.314;2023-04-24T03:49:00;15.50;;;10.87;;
3949;SDS011;53057;50.988;6.314;2023-04-24T03:51:31;20.80;;;9.43;;
3949;SDS011;53057;50.988;6.314;2023-04-24T03:54:10;25.90;;;11.67;;
3949;SDS011;53057;50.988;6.314;2023-04-24T03:56:38;18.40;;;10.70;;
3949;SDS011;53057;50.988;6.314;2023-04-24T03:59:05;15.53;;;9.80;;
3949;SDS011;53057;50.988;6.314;2023-04-24T04:01:34;18.07;;;9.40;;
3949;SDS011;53057;50.988;6.314;2023-04-24T04:04:11;23.70;;;10.83;;
3949;SDS011;53057;50.988;6.314;2023-04-24T04:06:39;19.43;;;13.10;;
3949;SDS011;53057;50.988;6.314;2023-04-24T04:09:06;19.57;;;10.53;;
3949;SDS011;53057;50.988;6.314;2023-04-24T04:11:34;17.33;;;11.37;;
3949;SDS011;53057;50.988;6.314;2023-04-24T04:14:01;14.90;;;9.30;;
3949;SDS011;53057;50.988;6.314;2023-04-24T04:16:28;13.37;;;9.07;;
3949;SDS011;53057;50.988;6.314;2023-04-24T04:19:01;13.77;;;6.77;;
3949;SDS011;53057;50.988;6.314;2023-04-24T04:21:29;11.63;;;8.30;;
3949;SDS011;53057;50.988;6.314;2023-04-24T04:24:08;14.90;;;9.67;;
3949;SDS011;53057;50.988;6.314;2023-04-24T04:26:40;16.13;;;10.57;;
3949;SDS011;53057;50.988;6.314;2023-04-24T04:29:09;13.70;;;11.07;;
3949;SDS011;53057;50.988;6.314;2023-04-24T04:31:40;17.73;;;9.33;;
3949;SDS011;53057;50.988;6.314;2023-04-24T04:34:10;14.93;;;9.80;;
3949;SDS011;53057;50.988;6.314;2023-04-24T04:36:39;16.83;;;9.60;;
3949;SDS011;53057;50.988;6.314;2023-04-24T04:39:26;10.30;;;8.40;;
3949;SDS011;53057;50.988;6.314;2023-04-24T04:41:58;10.30;;;7.33;;
3949;SDS011;53057;50.988;6.314;2023-04-24T04:44:33;12.17;;;7.90;;
3949;SDS011;53057;50.988;6.314;2023-04-24T04:47:03;13.83;;;9.77;;
3949;SDS011;53057;50.988;6.314;2023-04-24T04:49:34;13.30;;;7.57;;
3949;SDS011;53057;50.988;6.314;2023-04-24T04:52:01;14.20;;;9.17;;
3949;SDS011;53057;50.988;6.314;2023-04-24T04:54:28;11.93;;;8.37;;
3949;SDS011;53057;50.988;6.314;2023-04-24T04:56:55;10.83;;;7.33;;
3949;SDS011;53057;50.988;6.314;2023-04-24T04:59:23;9.80;;;6.90;;
3949;SDS011;53057;50.988;6.314;2023-04-24T05:01:55;13.23;;;9.00;;
3949;SDS011;53057;50.988;6.314;2023-04-24T05:04:22;11.97;;;8.00;;
3949;SDS011;53057;50.988;6.314;2023-04-24T05:06:49;13.47;;;9.60;;
3949;SDS011;53057;50.988;6.314;2023-04-24T05:09:18;13.53;;;6.47;;
3949;SDS011;53057;50.988;6.314;2023-04-24T05:11:52;13.97;;;8.17;;
3949;SDS011;53057;50.988;6.314;2023-04-24T05:14:20;11.83;;;7.47;;
3949;SDS011;53057;50.988;6.314;2023-04-24T05:16:48;11.67;;;8.20;;
3949;SDS011;53057;50.988;6.314;2023-04-24T05:19:17;8.37;;;5.63;;
3949;SDS011;53057;50.988;6.314;2023-04-24T05:21:44;11.87;;;5.87;;
3949;SDS011;53057;50.988;6.314;2023-04-24T05:24:11;17.70;;;8.30;;
3949;SDS011;53057;50.988;6.314;2023-04-24T05:26:56;15.17;;;8.87;;
3949;SDS011;53057;50.988;6.314;2023-04-24T05:29:28;13.53;;;8.47;;
3949;SDS011;53057;50.988;6.314;2023-04-24T05:31:57;15.53;;;7.00;;
3949;SDS011;53057;50.988;6.314;2023-04-24T05:34:24;8.43;;;6.00;;
3949;SDS011;53057;50.988;6.314;2023-04-24T05:36:54;8.63;;;6.20;;
3949;SDS011;53057;50.988;6.314;2023-04-24T05:39:21;10.23;;;6.87;;
3949;SDS011;53057;50.988;6.314;2023-04-24T05:41:50;6.93;;;5.50;;
3949;SDS011;53057;50.988;6.314;2023-04-24T05:44:17;7.43;;;5.60;;
3949;SDS011;53057;50.988;6.314;2023-04-24T05:46:43;15.63;;;5.93;;
3949;SDS011;53057;50.988;6.314;2023-04-24T05:49:10;8.80;;;7.07;;
3949;SDS011;53057;50.988;6.314;2023-04-24T05:51:37;7.90;;;5.47;;
3949;SDS011;53057;50.988;6.314;2023-04-24T05:54:05;11.60;;;7.50;;
3949;SDS011;53057;50.988;6.314;2023-04-24T05:56:32;10.97;;;7.37;;
3949;SDS011;53057;50.988;6.314;2023-04-24T05:59:02;12.77;;;6.90;;
3949;SDS011;53057;50.988;6.314;2023-04-24T06:01:30;11.13;;;7.10;;
3949;SDS011;53057;50.988;6.314;2023-04-24T06:04:06;11.10;;;7.43;;
3949;SDS011;53057;50.988;6.314;2023-04-24T06:06:34;9.97;;;6.70;;
3949;SDS011;53057;50.988;6.314;2023-04-24T06:09:08;10.33;;;7.00;;
3949;SDS011;53057;50.988;6.314;2023-04-24T06:11:42;10.10;;;6.20;;
3949;SDS011;53057;50.988;6.314;2023-04-24T06:14:11;7.07;;;6.17;;
3949;SDS011;53057;50.988;6.314;2023-04-24T06:16:40;7.63;;;5.53;;
3949;SDS011;53057;50.988;6.314;2023-04-24T06:19:30;5.57;;;4.20;;
3949;SDS011;53057;50.988;6.314;2023-04-24T06:21:57;7.10;;;5.07;;
3949;SDS011;53057;50.988;6.314;2023-04-24T06:24:29;7.50;;;4.63;;
3949;SDS011;53057;50.988;6.314;2023-04-24T06:26:57;4.13;;;3.57;;
3949;SDS011;53057;50.988;6.314;2023-04-24T06:29:25;4.30;;;3.80;;
3949;SDS011;53057;50.988;6.314;2023-04-24T06:31:53;5.17;;;3.80;;
3949;SDS011;53057;50.988;6.314;2023-04-24T06:34:20;5.30;;;4.77;;
3949;SDS011;53057;50.988;6.314;2023-04-24T06:36:49;5.13;;;4.03;;
3949;SDS011;53057;50.988;6.314;2023-04-24T06:39:16;8.63;;;4.07;;
3949;SDS011;53057;50.988;6.314;2023-04-24T06:41:42;7.13;;;4.70;;
3949;SDS011;53057;50.988;6.314;2023-04-24T06:44:17;8.70;;;4.67;;
3949;SDS011;53057;50.988;6.314;2023-04-24T06:46:44;4.50;;;3.80;;
3949;SDS011;53057;50.988;6.314;2023-04-24T06:49:11;5.17;;;4.00;;
3949;SDS011;53057;50.988;6.314;2023-04-24T06:51:46;7.00;;;4.30;;
3949;SDS011;53057;50.988;6.314;2023-04-24T06:54:12;4.57;;;2.60;;
3949;SDS011;53057;50.988;6.314;2023-04-24T06:56:39;3.93;;;2.60;;
3949;SDS011;53057;50.988;6.314;2023-04-24T06:59:06;7.37;;;3.83;;
3949;SDS011;53057;50.988;6.314;2023-04-24T07:01:32;7.60;;;4.23;;
3949;SDS011;53057;50.988;6.314;2023-04-24T07:03:59;6.70;;;4.10;;
3949;SDS011;53057;50.988;6.314;2023-04-24T07:06:26;8.97;;;6.13;;
3949;SDS011;53057;50.988;6.314;2023-04-24T07:08:53;10.33;;;5.67;;
3949;SDS011;53057;50.988;6.314;2023-04-24T07:11:20;6.37;;;4.67;;
3949;SDS011;53057;50.988;6.314;2023-04-24T07:13:48;2.63;;;2.53;;
3949;SDS011;53057;50.988;6.314;2023-04-24T07:16:17;6.67;;;3.13;;
3949;SDS011;53057;50.988;6.314;2023-04-24T07:18:44;5.10;;;3.67;;
3949;SDS011;53057;50.988;6.314;2023-04-24T07:21:12;7.10;;;3.10;;
3949;SDS011;53057;50.988;6.314;2023-04-24T07:23:39;9.60;;;3.67;;
3949;SDS011;53057;50.988;6.314;2023-04-24T07:26:09;7.40;;;3.43;;
3949;SDS011;53057;50.988;6.314;2023-04-24T07:28:37;3.77;;;2.83;;
3949;SDS011;53057;50.988;6.314;2023-04-24T07:31:04;5.80;;;3.53;;
3949;SDS011;53057;50.988;6.314;2023-04-24T07:33:31;3.40;;;3.10;;
3949;SDS011;53057;50.988;6.314;2023-04-24T07:35:58;5.70;;;3.70;;
3949;SDS011;53057;50.988;6.314;2023-04-24T07:38:30;7.27;;;4.50;;
3949;SDS011;53057;50.988;6.314;2023-04-24T07:40:56;4.03;;;3.50;;
3949;SDS011;53057;50.988;6.314;2023-04-24T07:43:28;6.37;;;4.40;;
3949;SDS011;53057;50.988;6.314;2023-04-24T07:45:55;3.50;;;3.30;;
3949;SDS011;53057;50.988;6.314;2023-04-24T07:48:35;3.80;;;2.90;;
3949;SDS011;53057;50.988;6.314;2023-04-24T07:51:09;4.00;;;2.87;;
3949;SDS011;53057;50.988;6.314;2023-04-24T07:53:44;5.30;;;3.17;;
3949;SDS011;53057;50.988;6.314;2023-04-24T07:56:21;4.23;;;3.60;;
3949;SDS011;53057;50.988;6.314;2023-04-24T07:59:18;4.73;;;3.87;;
3949;SDS011;53057;50.988;6.314;2023-04-24T08:01:45;5.60;;;3.40;;
3949;SDS011;53057;50.988;6.314;2023-04-24T08:04:12;3.80;;;3.27;;
3949;SDS011;53057;50.988;6.314;2023-04-24T08:06:39;3.87;;;2.97;;
3949;SDS011;53057;50.988;6.314;2023-04-24T08:09:07;11.57;;;4.53;;
3949;SDS011;53057;50.988;6.314;2023-04-24T08:11:34;3.93;;;3.50;;
3949;SDS011;53057;50.988;6.314;2023-04-24T08:14:01;6.43;;;4.67;;
3949;SDS011;53057;50.988;6.314;2023-04-24T08:16:30;6.63;;;4.87;;
3949;SDS011;53057;50.988;6.314;2023-04-24T08:19:05;9.40;;;4.90;;
3949;SDS011;53057;50.988;6.314;2023-04-24T08:21:57;5.77;;;4.13;;
3949;SDS011;53057;50.988;6.314;2023-04-24T08:24:23;7.00;;;5.20;;
3949;SDS011;53057;50.988;6.314;2023-04-24T08:29:46;11.90;;;6.80;;
3949;SDS011;53057;50.988;6.314;2023-04-24T08:32:13;12.33;;;5.30;;
3949;SDS011;53057;50.988;6.314;2023-04-24T08:34:40;7.70;;;6.60;;
3949;SDS011;53057;50.988;6.314;2023-04-24T08:37:07;7.63;;;6.10;;
3949;SDS011;53057;50.988;6.314;2023-04-24T08:39:41;17.67;;;7.67;;
3949;SDS011;53057;50.988;6.314;2023-04-24T08:42:37;10.67;;;7.23;;
3949;SDS011;53057;50.988;6.314;2023-04-24T08:45:05;15.30;;;7.10;;
3949;SDS011;53057;50.988;6.314;2023-04-24T08:47:34;13.13;;;7.27;;
3949;SDS011;53057;50.988;6.314;2023-04-24T08:50:10;12.40;;;7.63;;
3949;SDS011;53057;50.988;6.314;2023-04-24T08:52:43;9.00;;;6.90;;
3949;SDS011;53057;50.988;6.314;2023-04-24T08:55:12;17.37;;;9.80;;
3949;SDS011;53057;50.988;6.314;2023-04-24T08:57:41;14.67;;;7.10;;
3949;SDS011;53057;50.988;6.314;2023-04-24T09:00:11;8.70;;;6.77;;
3949;SDS011;53057;50.988;6.314;2023-04-24T09:02:41;8.90;;;6.43;;
3949;SDS011;53057;50.988;6.314;2023-04-24T09:05:18;11.03;;;6.03;;
3949;SDS011;53057;50.988;6.314;2023-04-24T09:17:52;12.07;;;6.80;;
3949;SDS011;53057;50.988;6.314;2023-04-24T09:21:04;11.93;;;7.57;;
3949;SDS011;53057;50.988;6.314;2023-04-24T09:24:27;23.20;;;8.30;;
3949;SDS011;53057;50.988;6.314;2023-04-24T09:27:14;18.40;;;7.07;;
3949;SDS011;53057;50.988;6.314;2023-04-24T09:29:57;11.03;;;6.80;;
3949;SDS011;53057;50.988;6.314;2023-04-24T09:32:45;10.13;;;5.77;;
3949;SDS011;53057;50.988;6.314;2023-04-24T09:35:16;6.00;;;4.20;;
3949;SDS011;53057;50.988;6.314;2023-04-24T09:37:47;14.57;;;5.30;;
3949;SDS011;53057;50.988;6.314;2023-04-24T09:43:19;10.20;;;5.27;;
3949;SDS011;53057;50.988;6.314;2023-04-24T09:46:43;19.47;;;6.50;;
3949;SDS011;53057;50.988;6.314;2023-04-24T09:50:09;6.17;;;4.90;;
3949;SDS011;53057;50.988;6.314;2023-04-24T10:05:03;11.27;;;6.50;;
3949;SDS011;53057;50.988;6.314;2023-04-24T10:08:13;9.83;;;5.40;;
3949;SDS011;53057;50.988;6.314;2023-04-24T10:11:27;8.53;;;4.53;;
3949;SDS011;53057;50.988;6.314;2023-04-24T10:17:40;13.70;;;5.40;;
3949;SDS011;53057;50.988;6.314;2023-04-24T10:20:25;10.33;;;4.50;;
3949;SDS011;53057;50.988;6.314;2023-04-24T10:31:14;8.67;;;4.37;;
3949;SDS011;53057;50.988;6.314;2023-04-24T10:33:48;8.57;;;4.80;;
3949;SDS011;53057;50.988;6.314;2023-04-24T10:36:19;13.43;;;6.57;;
3949;SDS011;53057;50.988;6.314;2023-04-24T10:38:48;10.80;;;4.30;;
3949;SDS011;53057;50.988;6.314;2023-04-24T10:41:19;7.10;;;4.30;;
3949;SDS011;53057;50.988;6.314;2023-04-24T10:44:10;7.50;;;4.13;;
3949;SDS011;53057;50.988;6.314;2023-04-24T10:46:43;11.07;;;7.23;;
3949;SDS011;53057;50.988;6.314;2023-04-24T10:49:29;8.83;;;4.70;;
3949;SDS011;53057;50.988;6.314;2023-04-24T10:52:00;11.00;;;5.63;;
3949;SDS011;53057;50.988;6.314;2023-04-24T10:54:33;10.47;;;5.00;;
3949;SDS011;53057;50.988;6.314;2023-04-24T11:00:13;7.93;;;4.50;;
3949;SDS011;53057;50.988;6.314;2023-04-24T11:02:40;9.30;;;4.90;;
3949;SDS011;53057;50.988;6.314;2023-04-24T11:05:10;10.40;;;4.43;;
3949;SDS011;53057;50.988;6.314;2023-04-24T11:10:27;7.70;;;5.37;;
3949;SDS011;53057;50.988;6.314;2023-04-24T11:12:55;7.17;;;4.10;;
3949;SDS011;53057;50.988;6.314;2023-04-24T11:18:39;17.30;;;5.30;;
3949;SDS011;53057;50.988;6.314;2023-04-24T11:21:10;8.90;;;5.13;;
3949;SDS011;53057;50.988;6.314;2023-04-24T11:23:37;7.27;;;5.73;;
3949;SDS011;53057;50.988;6.314;2023-04-24T11:26:11;6.20;;;5.03;;
3949;SDS011;53057;50.988;6.314;2023-04-24T11:28:51;16.00;;;5.87;;
3949;SDS011;53057;50.988;6.314;2023-04-24T11:31:33;9.20;;;5.90;;
3949;SDS011;53057;50.988;6.314;2023-04-24T11:34:10;9.97;;;4.50;;
3949;SDS011;53057;50.988;6.314;2023-04-24T11:36:37;18.83;;;7.13;;
3949;SDS011;53057;50.988;6.314;2023-04-24T11:39:04;13.63;;;6.30;;
3949;SDS011;53057;50.988;6.314;2023-04-24T11:41:31;4.83;;;3.90;;
3949;SDS011;53057;50.988;6.314;2023-04-24T11:43:58;6.77;;;4.03;;
3949;SDS011;53057;50.988;6.314;2023-04-24T12:04:10;14.20;;;4.97;;
3949;SDS011;53057;50.988;6.314;2023-04-24T12:06:37;9.13;;;4.70;;
3949;SDS011;53057;50.988;6.314;2023-04-24T12:09:04;7.47;;;4.90;;
3949;SDS011;53057;50.988;6.314;2023-04-24T12:11:52;10.33;;;5.30;;
3949;SDS011;53057;50.988;6.314;2023-04-24T12:14:19;11.87;;;5.20;;
3949;SDS011;53057;50.988;6.314;2023-04-24T12:16:47;13.27;;;4.97;;
3949;SDS011;53057;50.988;6.314;2023-04-24T12:19:18;21.27;;;11.43;;
3949;SDS011;53057;50.988;6.314;2023-04-24T12:21:45;6.73;;;3.50;;
3949;SDS011;53057;50.988;6.314;2023-04-24T12:24:27;8.13;;;4.80;;
3949;SDS011;53057;50.988;6.314;2023-04-24T12:27:01;11.00;;;4.57;;
3949;SDS011;53057;50.988;6.314;2023-04-24T12:29:28;15.00;;;8.20;;
3949;SDS011;53057;50.988;6.314;2023-04-24T12:31:55;13.07;;;5.87;;
3949;SDS011;53057;50.988;6.314;2023-04-24T12:34:22;19.33;;;5.10;;
3949;SDS011;53057;50.988;6.314;2023-04-24T12:36:50;15.37;;;6.33;;
3949;SDS011;53057;50.988;6.314;2023-04-24T12:39:17;14.03;;;5.00;;
3949;SDS011;53057;50.988;6.314;2023-04-24T12:41:58;11.87;;;4.53;;
3949;SDS011;53057;50.988;6.314;2023-04-24T12:44:30;20.53;;;5.90;;
3949;SDS011;53057;50.988;6.314;2023-04-24T12:46:57;10.07;;;4.90;;
3949;SDS011;53057;50.988;6.314;2023-04-24T12:49:24;8.37;;;5.20;;
3949;SDS011;53057;50.988;6.314;2023-04-24T12:51:54;16.50;;;5.10;;
3949;SDS011;53057;50.988;6.314;2023-04-24T12:54:24;5.17;;;3.97;;
3949;SDS011;53057;50.988;6.314;2023-04-24T12:56:51;10.40;;;4.50;;
3949;SDS011;53057;50.988;6.314;2023-04-24T12:59:18;11.07;;;4.40;;
3949;SDS011;53057;50.988;6.314;2023-04-24T13:01:44;7.57;;;4.07;;
3949;SDS011;53057;50.988;6.314;2023-04-24T13:04:11;10.43;;;4.83;;
3949;SDS011;53057;50.988;6.314;2023-04-24T13:06:41;6.77;;;4.40;;
3949;SDS011;53057;50.988;6.314;2023-04-24T13:09:08;9.17;;;6.00;;
3949;SDS011;53057;50.988;6.314;2023-04-24T13:11:43;6.33;;;5.27;;
3949;SDS011;53057;50.988;6.314;2023-04-24T13:14:10;10.63;;;4.50;;
3949;SDS011;53057;50.988;6.314;2023-04-24T13:16:37;9.87;;;4.87;;
3949;SDS011;53057;50.988;6.314;2023-04-24T13:19:04;5.37;;;4.83;;
3949;SDS011;53057;50.988;6.314;2023-04-24T13:21:31;13.47;;;5.90;;
3949;SDS011;53057;50.988;6.314;2023-04-24T13:23:58;12.47;;;4.10;;
3949;SDS011;53057;50.988;6.314;2023-04-24T13:26:25;7.37;;;3.90;;
3949;SDS011;53057;50.988;6.314;2023-04-24T13:28:53;6.10;;;4.30;;
3949;SDS011;53057;50.988;6.314;2023-04-24T13:31:20;8.50;;;4.43;;
3949;SDS011;53057;50.988;6.314;2023-04-24T13:33:46;12.87;;;6.83;;
3949;SDS011;53057;50.988;6.314;2023-04-24T13:36:13;5.00;;;3.70;;
3949;SDS011;53057;50.988;6.314;2023-04-24T13:38:40;9.77;;;5.00;;
3949;SDS011;53057;50.988;6.314;2023-04-24T13:41:07;10.00;;;7.60;;
3949;SDS011;53057;50.988;6.314;2023-04-24T13:43:33;14.40;;;9.77;;
3949;SDS011;53057;50.988;6.314;2023-04-24T13:46:00;9.57;;;6.20;;
3949;SDS011;53057;50.988;6.314;2023-04-24T13:48:30;13.47;;;7.53;;
3949;SDS011;53057;50.988;6.314;2023-04-24T13:50:59;8.07;;;6.73;;
3949;SDS011;53057;50.988;6.314;2023-04-24T13:53:26;16.47;;;9.83;;
3949;SDS011;53057;50.988;6.314;2023-04-24T13:55:52;10.77;;;6.80;;
3949;SDS011;53057;50.988;6.314;2023-04-24T13:58:19;7.20;;;5.80;;
3949;SDS011;53057;50.988;6.314;2023-04-24T14:00:49;12.40;;;5.67;;
3949;SDS011;53057;50.988;6.314;2023-04-24T14:03:15;11.30;;;5.90;;
3949;SDS011;53057;50.988;6.314;2023-04-24T14:05:45;11.80;;;4.73;;
3949;SDS011;53057;50.988;6.314;2023-04-24T14:08:12;6.83;;;5.47;;
3949;SDS011;53057;50.988;6.314;2023-04-24T14:10:39;6.53;;;4.00;;
3949;SDS011;53057;50.988;6.314;2023-04-24T14:13:06;11.63;;;6.13;;
3949;SDS011;53057;50.988;6.314;2023-04-24T14:15:32;13.97;;;9.60;;
3949;SDS011;53057;50.988;6.314;2023-04-24T14:17:59;22.50;;;11.93;;
3949;SDS011;53057;50.988;6.314;2023-04-24T14:20:28;8.27;;;4.73;;
3949;SDS011;53057;50.988;6.314;2023-04-24T14:22:54;9.90;;;4.50;;
3949;SDS011;53057;50.988;6.314;2023-04-24T14:25:21;6.60;;;4.17;;
3949;SDS011;53057;50.988;6.314;2023-04-24T14:27:49;5.03;;;3.40;;
3949;SDS011;53057;50.988;6.314;2023-04-24T14:30:15;9.10;;;4.30;;
3949;SDS011;53057;50.988;6.314;2023-04-24T14:32:42;11.33;;;4.70;;
3949;SDS011;53057;50.988;6.314;2023-04-24T14:35:09;6.23;;;4.00;;
3949;SDS011;53057;50.988;6.314;2023-04-24T14:37:36;5.67;;;4.17;;
3949;SDS011;53057;50.988;6.314;2023-04-24T14:40:03;8.90;;;4.60;;
3949;SDS011;53057;50.988;6.314;2023-04-24T14:42:37;9.87;;;4.50;;
3949;SDS011;53057;50.988;6.314;2023-04-24T14:45:03;8.77;;;4.30;;
3949;SDS011;53057;50.988;6.314;2023-04-24T14:47:33;5.60;;;4.87;;
3949;SDS011;53057;50.988;6.314;2023-04-24T14:49:59;5.07;;;4.60;;
3949;SDS011;53057;50.988;6.314;2023-04-24T14:52:26;8.73;;;4.53;;
3949;SDS011;53057;50.988;6.314;2023-04-24T14:54:53;11.33;;;4.70;;
3949;SDS011;53057;50.988;6.314;2023-04-24T14:57:19;7.53;;;4.60;;
3949;SDS011;53057;50.988;6.314;2023-04-24T14:59:46;8.33;;;5.20;;
3949;SDS011;53057;50.988;6.314;2023-04-24T15:02:12;4.97;;;4.07;;
3949;SDS011;53057;50.988;6.314;2023-04-24T15:04:43;5.30;;;3.70;;
3949;SDS011;53057;50.988;6.314;2023-04-24T15:07:10;9.73;;;4.63;;
3949;SDS011;53057;50.988;6.314;2023-04-24T15:09:37;11.03;;;4.00;;
3949;SDS011;53057;50.988;6.314;2023-04-24T15:12:04;4.73;;;4.30;;
3949;SDS011;53057;50.988;6.314;2023-04-24T15:14:31;7.93;;;4.47;;
3949;SDS011;53057;50.988;6.314;2023-04-24T15:16:57;6.73;;;4.70;;
3949;SDS011;53057;50.988;6.314;2023-04-24T15:19:24;8.30;;;4.70;;
3949;SDS011;53057;50.988;6.314;2023-04-24T15:21:51;4.30;;;3.10;;
3949;SDS011;53057;50.988;6.314;2023-04-24T15:24:17;8.63;;;4.23;;
3949;SDS011;53057;50.988;6.314;2023-04-24T15:26:44;5.50;;;3.30;;
3949;SDS011;53057;50.988;6.314;2023-04-24T15:29:11;4.13;;;3.10;;
3949;SDS011;53057;50.988;6.314;2023-04-24T15:31:37;5.43;;;3.43;;
3949;SDS011;53057;50.988;6.314;2023-04-24T15:34:06;8.60;;;4.10;;
3949;SDS011;53057;50.988;6.314;2023-04-24T15:36:33;13.80;;;3.80;;
3949;SDS011;53057;50.988;6.314;2023-04-24T15:39:03;6.50;;;4.13;;
3949;SDS011;53057;50.988;6.314;2023-04-24T15:41:32;4.07;;;3.23;;
3949;SDS011;53057;50.988;6.314;2023-04-24T15:43:59;5.23;;;4.30;;
3949;SDS011;53057;50.988;6.314;2023-04-24T15:46:25;4.30;;;3.90;;
3949;SDS011;53057;50.988;6.314;2023-04-24T15:48:52;5.10;;;3.63;;
3949;SDS011;53057;50.988;6.314;2023-04-24T15:51:19;8.27;;;3.60;;
3949;SDS011;53057;50.988;6.314;2023-04-24T15:53:46;3.83;;;3.53;;
3949;SDS011;53057;50.988;6.314;2023-04-24T15:56:13;4.70;;;3.40;;
3949;SDS011;53057;50.988;6.314;2023-04-24T15:58:39;8.50;;;3.90;;
3949;SDS011;53057;50.988;6.314;2023-04-24T16:01:06;4.70;;;3.70;;
3949;SDS011;53057;50.988;6.314;2023-04-24T16:03:33;5.50;;;3.67;;
3949;SDS011;53057;50.988;6.314;2023-04-24T16:06:00;4.30;;;3.40;;
3949;SDS011;53057;50.988;6.314;2023-04-24T16:08:27;6.47;;;3.70;;
3949;SDS011;53057;50.988;6.314;2023-04-24T16:10:53;3.70;;;3.37;;
3949;SDS011;53057;50.988;6.314;2023-04-24T16:13:20;4.40;;;3.27;;
3949;SDS011;53057;50.988;6.314;2023-04-24T16:15:47;8.87;;;3.10;;
3949;SDS011;53057;50.988;6.314;2023-04-24T16:18:13;5.60;;;3.10;;